Flight Track Log - Related Links

Times and Time Zones

All times are in EDT time to prevent confusion due to time zone crossing. See the GJS6241 flight status page for this flight to view local times or setup timezone preferences in your user account.

Time Position Orientation Groundspeed Altitude Reporting Facility
EDT Latitude Longitude Course Direction KTS MPH feet Rate Location/Type
Fri 11:12:05 PM 40.7333 -73.8333 207° Southwest 176 203 2,900  Level New York TRACON
Fri 11:13:05 PM 40.6833 -73.8667 207° Southwest 190 219 6,000 2,900 Climbing New York TRACON
Fri 11:14:05 PM 40.6833 -73.9333 270° West 213 245 8,700 2,150 Climbing New York TRACON
Fri 11:15:05 PM 40.7333 -74.0000 315° West 304 350 10,300 1,737 Climbing New York TRACON
Fri 11:15:59 PM 40.8167 -74.0500 336° Northwest 337 388 12,000 947 Climbing New York TRACON
Fri 11:16:59 PM 40.8500 -74.1167 336° Northwest 286 329 12,100 800 Climbing New York TRACON
Fri 11:17:59 PM 40.8333 -74.2000 255° West 246 283 13,600 1,250 Climbing New York TRACON
Fri 11:18:59 PM 40.7833 -74.2833 232° Southwest 298 343 14,600 1,000 Climbing New York TRACON
Fri 11:20:05 PM 40.7333 -74.4000 241° Southwest 332 382 15,700 1,050 Climbing New York TRACON
Fri 11:20:59 PM 40.6833 -74.4833 232° Southwest 346 398 16,700 684 Climbing New York TRACON
Fri 11:21:59 PM 40.6167 -74.6000 233° Southwest 349 402 17,000 150 Climbing New York TRACON
Fri 11:22:59 PM 40.5667 -74.7000 237° Southwest 338 389 17,000  Level New York TRACON
Fri 11:23:59 PM 40.5167 -74.8000 237° Southwest 330 380 17,000  Level New York TRACON
Fri 11:24:59 PM 40.4667 -74.9000 237° Southwest 342 394 17,000  Level New York TRACON
Fri 11:25:48 PM 40.4247 -74.9642 229° Southwest 342 394 17,000 505 Level New York Center
Fri 11:26:46 PM 40.3586 -75.0581 227° Southwest 358 412 17,900 1,169 Climbing New York Center
Fri 11:27:46 PM 40.2950 -75.1494 228° Southwest 350 403 19,300 1,150 Climbing New York Center
Fri 11:28:46 PM 40.2308 -75.2433 228° Southwest 350 403 20,200 1,024 Climbing New York Center
Fri 11:29:49 PM 40.1539 -75.3522 227° Southwest 363 418 21,400 900 Climbing New York Center
Fri 11:30:46 PM 40.0833 -75.4508 227° Southwest 368 423 22,000 305 Climbing New York Center
Fri 11:31:47 PM 40.0128 -75.5436 225° Southwest 368 423 22,000  Level New York Center
Fri 11:32:46 PM 39.9464 -75.6367 227° Southwest 368 423 22,000  Level New York Center
Fri 11:33:46 PM 39.8797 -75.7347 228° Southwest 363 418 22,000  Level New York Center
Fri 11:34:47 PM 39.8169 -75.8386 232° Southwest 369 425 22,000  Level New York Center
Fri 11:35:47 PM 39.7497 -75.9444 230° Southwest 375 432 22,000  Level New York Center
Fri 11:37:44 PM 39.6206 -76.1492 231° Southwest 373 429 22,000  Level Washington Center
Fri 11:38:44 PM 39.5556 -76.2483 230° Southwest 368 423 22,000  Level Washington Center
Fri 11:39:44 PM 39.4944 -76.3444 231° Southwest 368 423 22,000  Level Washington Center
Fri 11:40:44 PM 39.4294 -76.4406 229° Southwest 368 423 22,000  Level Washington Center
Fri 11:41:44 PM 39.3703 -76.5311 230° Southwest 363 418 22,000  Level Washington Center
Fri 11:41:59 PM 39.3500 -76.5667 234° Southwest 354 407 22,000  Level Potomac TRACON
Fri 11:43:00 PM 39.2833 -76.6667 229° Southwest 353 406 22,000  Level Potomac TRACON
Fri 11:44:00 PM 39.2333 -76.7667 237° Southwest 348 400 22,000  Level Potomac TRACON
Fri 11:45:00 PM 39.1667 -76.8500 224° Southwest 343 395 22,000  Level Potomac TRACON
Fri 11:46:00 PM 39.1000 -76.9500 229° Southwest 338 389 22,000  Level Potomac TRACON
Fri 11:47:00 PM 39.0500 -77.0333 232° Southwest 334 384 22,000  Level Potomac TRACON
Fri 11:48:00 PM 38.9667 -77.1167 218° Southwest 333 383 22,000  Level Potomac TRACON
Fri 11:49:00 PM 38.9000 -77.2000 224° Southwest 335 386 22,000 -700 Level Potomac TRACON
Fri 11:50:00 PM 38.8333 -77.2667 218° Southwest 340 391 20,600 -952 Descending Potomac TRACON
Fri 11:51:06 PM 38.7667 -77.3500 224° Southwest 320 368 20,000 -286 Descending Potomac TRACON
Fri 11:52:06 PM 38.7000 -77.4167 218° Southwest 299 344 20,000 -400 Level Potomac TRACON
Fri 11:53:06 PM 38.6333 -77.4833 218° Southwest 260 299 19,200 -1,100 Descending Potomac TRACON
Fri 11:54:06 PM 38.5833 -77.5333 218° Southwest 257 296 17,800 -1,350 Descending Potomac TRACON
Fri 11:55:06 PM 38.5333 -77.6000 226° Southwest 266 306 16,500 -1,300 Descending Potomac TRACON
Fri 11:56:06 PM 38.4833 -77.6833 233° Southwest 271 312 15,200 -1,450 Descending Potomac TRACON
Fri 11:57:06 PM 38.4500 -77.7500 237° Southwest 261 300 13,600 -1,750 Descending Potomac TRACON
Fri 11:58:06 PM 38.4167 -77.8333 243° Southwest 249 287 11,700 -1,736 Descending Potomac TRACON
Fri 11:59:07 PM 38.3833 -77.9000 237° Southwest 247 284 10,100 -1,190 Descending Potomac TRACON
Sat 12:00:07 AM 38.3500 -77.9667 237° Southwest 242 278 9,300 -1,056 Descending Potomac TRACON
Sat 12:01:12 AM 38.3167 -78.0333 238° Southwest 233 268 7,900 -1,524 Descending Potomac TRACON
Sat 12:02:13 AM 38.2667 -78.1167 233° Southwest 235 270 6,100 -1,388 Descending Potomac TRACON
Sat 12:03:13 AM 38.2333 -78.1833 238° Southwest 240 276 5,100 -550 Descending Potomac TRACON
Sat 12:04:13 AM 38.1833 -78.2333 218° Southwest 241 277 5,000 -500 Descending Potomac TRACON
Sat 12:05:13 AM 38.1333 -78.2667 208° Southwest 233 268 4,100 -450 Descending Potomac TRACON
Sat 12:06:13 AM 38.0833 -78.3167 218° Southwest 231 266 4,100  Level Potomac TRACON
Sat 12:07:07 AM 38.0333 -78.3500 208° Southwest 232 267 4,100  Level Potomac TRACON
Sat 12:08:07 AM 38.0000 -78.4000 230° Southwest 243 280 4,100 50 Level Potomac TRACON
Sat 12:09:07 AM 38.0167 -78.4500 293° West 196 226 4,200 -500 Climbing Potomac TRACON
Sat 12:10:07 AM 38.0500 -78.4833 322° Northwest 153 176 3,100 -550 Descending Potomac TRACON
Sat 12:11:07 AM 38.0667 -78.5000 322° Northwest 135 155 3,100  Level Potomac TRACON
Sat 12:13:13 AM 38.0667 -78.5000 180° South 135 155 3,100  Level Potomac TRACON

Login

Don't have an account? Register now (free) for customized features, flight alerts, and more!